sensor_id;sensor_type;location;lat;lon;timestamp;P1;durP1;ratioP1;P2;durP2;ratioP2
6406;SDS011;3236;51.022;6.818;2023-07-31T00:00:15;7.82;;;3.50;;
6406;SDS011;3236;51.022;6.818;2023-07-31T00:02:42;7.90;;;3.55;;
6406;SDS011;3236;51.022;6.818;2023-07-31T00:05:09;6.35;;;2.53;;
6406;SDS011;3236;51.022;6.818;2023-07-31T00:07:37;4.65;;;2.65;;
6406;SDS011;3236;51.022;6.818;2023-07-31T00:10:05;3.45;;;1.65;;
6406;SDS011;3236;51.022;6.818;2023-07-31T00:12:32;10.02;;;3.38;;
6406;SDS011;3236;51.022;6.818;2023-07-31T00:15:00;7.00;;;2.67;;
6406;SDS011;3236;51.022;6.818;2023-07-31T00:17:27;7.70;;;3.25;;
6406;SDS011;3236;51.022;6.818;2023-07-31T00:19:54;9.00;;;2.60;;
6406;SDS011;3236;51.022;6.818;2023-07-31T00:22:22;6.15;;;2.72;;
6406;SDS011;3236;51.022;6.818;2023-07-31T00:24:50;7.03;;;2.20;;
6406;SDS011;3236;51.022;6.818;2023-07-31T00:27:20;7.78;;;3.22;;
6406;SDS011;3236;51.022;6.818;2023-07-31T00:29:47;6.82;;;2.20;;
6406;SDS011;3236;51.022;6.818;2023-07-31T00:32:14;9.35;;;2.65;;
6406;SDS011;3236;51.022;6.818;2023-07-31T00:34:41;8.80;;;3.75;;
6406;SDS011;3236;51.022;6.818;2023-07-31T00:37:08;9.63;;;3.40;;
6406;SDS011;3236;51.022;6.818;2023-07-31T00:39:36;7.28;;;3.25;;
6406;SDS011;3236;51.022;6.818;2023-07-31T00:42:05;11.15;;;3.13;;
6406;SDS011;3236;51.022;6.818;2023-07-31T00:44:32;7.88;;;3.28;;
6406;SDS011;3236;51.022;6.818;2023-07-31T00:46:59;4.85;;;2.30;;
6406;SDS011;3236;51.022;6.818;2023-07-31T00:49:27;5.25;;;2.45;;
6406;SDS011;3236;51.022;6.818;2023-07-31T00:51:54;4.55;;;2.00;;
6406;SDS011;3236;51.022;6.818;2023-07-31T00:54:22;10.23;;;3.53;;
6406;SDS011;3236;51.022;6.818;2023-07-31T00:56:50;8.60;;;2.70;;
6406;SDS011;3236;51.022;6.818;2023-07-31T00:59:20;8.20;;;2.35;;
6406;SDS011;3236;51.022;6.818;2023-07-31T01:01:47;7.53;;;2.42;;
6406;SDS011;3236;51.022;6.818;2023-07-31T01:04:15;6.68;;;2.55;;
6406;SDS011;3236;51.022;6.818;2023-07-31T01:06:44;4.18;;;2.05;;
6406;SDS011;3236;51.022;6.818;2023-07-31T01:09:21;8.13;;;2.88;;
6406;SDS011;3236;51.022;6.818;2023-07-31T01:11:52;12.07;;;3.20;;
6406;SDS011;3236;51.022;6.818;2023-07-31T01:14:24;4.22;;;2.30;;
6406;SDS011;3236;51.022;6.818;2023-07-31T01:16:51;9.45;;;2.95;;
6406;SDS011;3236;51.022;6.818;2023-07-31T01:19:19;16.80;;;2.63;;
6406;SDS011;3236;51.022;6.818;2023-07-31T01:22:03;6.65;;;1.77;;
6406;SDS011;3236;51.022;6.818;2023-07-31T01:25:00;6.60;;;2.38;;
6406;SDS011;3236;51.022;6.818;2023-07-31T01:27:42;10.07;;;3.40;;
6406;SDS011;3236;51.022;6.818;2023-07-31T01:30:19;7.03;;;3.30;;
6406;SDS011;3236;51.022;6.818;2023-07-31T01:32:51;6.82;;;3.13;;
6406;SDS011;3236;51.022;6.818;2023-07-31T01:35:20;6.68;;;2.33;;
6406;SDS011;3236;51.022;6.818;2023-07-31T01:37:47;8.27;;;2.83;;
6406;SDS011;3236;51.022;6.818;2023-07-31T01:40:14;7.45;;;2.67;;
6406;SDS011;3236;51.022;6.818;2023-07-31T01:42:42;15.30;;;3.08;;
6406;SDS011;3236;51.022;6.818;2023-07-31T01:45:10;9.68;;;2.20;;
6406;SDS011;3236;51.022;6.818;2023-07-31T01:47:38;8.38;;;2.90;;
6406;SDS011;3236;51.022;6.818;2023-07-31T01:50:05;8.23;;;2.60;;
6406;SDS011;3236;51.022;6.818;2023-07-31T01:52:32;5.82;;;2.28;;
6406;SDS011;3236;51.022;6.818;2023-07-31T01:55:00;5.93;;;2.60;;
6406;SDS011;3236;51.022;6.818;2023-07-31T01:57:27;7.15;;;2.17;;
6406;SDS011;3236;51.022;6.818;2023-07-31T01:59:55;7.75;;;2.83;;
6406;SDS011;3236;51.022;6.818;2023-07-31T02:02:22;10.88;;;3.08;;
6406;SDS011;3236;51.022;6.818;2023-07-31T02:04:49;8.35;;;2.58;;
6406;SDS011;3236;51.022;6.818;2023-07-31T02:07:17;10.98;;;2.55;;
6406;SDS011;3236;51.022;6.818;2023-07-31T02:09:44;9.68;;;2.70;;
6406;SDS011;3236;51.022;6.818;2023-07-31T02:12:12;5.38;;;2.22;;
6406;SDS011;3236;51.022;6.818;2023-07-31T02:14:39;10.30;;;2.97;;
6406;SDS011;3236;51.022;6.818;2023-07-31T02:17:08;8.80;;;3.60;;
6406;SDS011;3236;51.022;6.818;2023-07-31T02:19:35;7.55;;;2.30;;
6406;SDS011;3236;51.022;6.818;2023-07-31T02:22:02;5.35;;;2.20;;
6406;SDS011;3236;51.022;6.818;2023-07-31T02:24:29;9.82;;;2.80;;
6406;SDS011;3236;51.022;6.818;2023-07-31T02:26:57;6.90;;;3.08;;
6406;SDS011;3236;51.022;6.818;2023-07-31T02:29:24;12.00;;;3.20;;
6406;SDS011;3236;51.022;6.818;2023-07-31T02:31:51;5.70;;;2.90;;
6406;SDS011;3236;51.022;6.818;2023-07-31T02:34:19;8.20;;;3.22;;
6406;SDS011;3236;51.022;6.818;2023-07-31T02:36:52;8.88;;;2.92;;
6406;SDS011;3236;51.022;6.818;2023-07-31T02:39:19;6.78;;;2.58;;
6406;SDS011;3236;51.022;6.818;2023-07-31T02:41:47;8.35;;;2.75;;
6406;SDS011;3236;51.022;6.818;2023-07-31T02:44:14;10.73;;;2.78;;
6406;SDS011;3236;51.022;6.818;2023-07-31T02:46:41;14.95;;;3.08;;
6406;SDS011;3236;51.022;6.818;2023-07-31T02:49:08;4.32;;;2.60;;
6406;SDS011;3236;51.022;6.818;2023-07-31T02:51:37;10.15;;;3.10;;
6406;SDS011;3236;51.022;6.818;2023-07-31T02:54:04;9.80;;;3.03;;
6406;SDS011;3236;51.022;6.818;2023-07-31T02:56:31;6.18;;;2.90;;
6406;SDS011;3236;51.022;6.818;2023-07-31T02:58:58;7.70;;;3.03;;
6406;SDS011;3236;51.022;6.818;2023-07-31T03:01:26;9.40;;;2.78;;
6406;SDS011;3236;51.022;6.818;2023-07-31T03:03:53;10.70;;;3.95;;
6406;SDS011;3236;51.022;6.818;2023-07-31T03:06:20;10.68;;;3.00;;
6406;SDS011;3236;51.022;6.818;2023-07-31T03:08:49;6.35;;;2.75;;
6406;SDS011;3236;51.022;6.818;2023-07-31T03:11:16;15.77;;;3.30;;
6406;SDS011;3236;51.022;6.818;2023-07-31T03:13:43;6.72;;;3.10;;
6406;SDS011;3236;51.022;6.818;2023-07-31T03:16:10;7.32;;;2.72;;
6406;SDS011;3236;51.022;6.818;2023-07-31T03:18:38;7.68;;;3.00;;
6406;SDS011;3236;51.022;6.818;2023-07-31T03:21:05;14.98;;;3.50;;
6406;SDS011;3236;51.022;6.818;2023-07-31T03:23:32;7.90;;;3.25;;
6406;SDS011;3236;51.022;6.818;2023-07-31T03:26:01;9.38;;;2.80;;
6406;SDS011;3236;51.022;6.818;2023-07-31T03:28:29;6.10;;;2.78;;
6406;SDS011;3236;51.022;6.818;2023-07-31T03:30:57;12.60;;;3.53;;
6406;SDS011;3236;51.022;6.818;2023-07-31T03:33:24;10.38;;;4.40;;
6406;SDS011;3236;51.022;6.818;2023-07-31T03:35:51;5.35;;;2.95;;
6406;SDS011;3236;51.022;6.818;2023-07-31T03:38:19;11.95;;;3.28;;
6406;SDS011;3236;51.022;6.818;2023-07-31T03:40:46;8.65;;;3.80;;
6406;SDS011;3236;51.022;6.818;2023-07-31T03:43:15;10.70;;;3.22;;
6406;SDS011;3236;51.022;6.818;2023-07-31T03:45:42;8.70;;;3.17;;
6406;SDS011;3236;51.022;6.818;2023-07-31T03:48:09;3.97;;;1.77;;
6406;SDS011;3236;51.022;6.818;2023-07-31T03:50:36;11.07;;;3.15;;
6406;SDS011;3236;51.022;6.818;2023-07-31T03:53:04;6.22;;;3.53;;
6406;SDS011;3236;51.022;6.818;2023-07-31T03:55:31;8.07;;;3.25;;
6406;SDS011;3236;51.022;6.818;2023-07-31T03:57:58;6.00;;;3.03;;
6406;SDS011;3236;51.022;6.818;2023-07-31T04:00:27;7.95;;;3.20;;
6406;SDS011;3236;51.022;6.818;2023-07-31T04:02:55;7.38;;;3.28;;
6406;SDS011;3236;51.022;6.818;2023-07-31T04:05:22;12.07;;;3.72;;
6406;SDS011;3236;51.022;6.818;2023-07-31T04:07:49;11.65;;;3.20;;
6406;SDS011;3236;51.022;6.818;2023-07-31T04:10:16;7.80;;;3.45;;
6406;SDS011;3236;51.022;6.818;2023-07-31T04:12:43;8.68;;;3.90;;
6406;SDS011;3236;51.022;6.818;2023-07-31T04:15:11;7.18;;;3.00;;
6406;SDS011;3236;51.022;6.818;2023-07-31T04:17:39;10.63;;;3.83;;
6406;SDS011;3236;51.022;6.818;2023-07-31T04:20:06;10.40;;;3.50;;
6406;SDS011;3236;51.022;6.818;2023-07-31T04:22:34;15.00;;;3.70;;
6406;SDS011;3236;51.022;6.818;2023-07-31T04:25:01;10.45;;;3.90;;
6406;SDS011;3236;51.022;6.818;2023-07-31T04:27:29;10.05;;;3.95;;
6406;SDS011;3236;51.022;6.818;2023-07-31T04:29:56;10.43;;;4.60;;
6406;SDS011;3236;51.022;6.818;2023-07-31T04:32:23;10.10;;;3.78;;
6406;SDS011;3236;51.022;6.818;2023-07-31T04:34:52;12.45;;;4.40;;
6406;SDS011;3236;51.022;6.818;2023-07-31T04:37:19;11.27;;;4.45;;
6406;SDS011;3236;51.022;6.818;2023-07-31T04:39:47;13.75;;;4.45;;
6406;SDS011;3236;51.022;6.818;2023-07-31T04:42:14;8.82;;;3.15;;
6406;SDS011;3236;51.022;6.818;2023-07-31T04:44:41;8.40;;;3.33;;
6406;SDS011;3236;51.022;6.818;2023-07-31T04:47:08;6.10;;;3.42;;
6406;SDS011;3236;51.022;6.818;2023-07-31T04:49:35;6.15;;;3.15;;
6406;SDS011;3236;51.022;6.818;2023-07-31T04:52:05;10.27;;;3.38;;
6406;SDS011;3236;51.022;6.818;2023-07-31T04:54:32;8.27;;;3.45;;
6406;SDS011;3236;51.022;6.818;2023-07-31T04:56:59;8.35;;;3.53;;
6406;SDS011;3236;51.022;6.818;2023-07-31T04:59:26;8.45;;;3.83;;
6406;SDS011;3236;51.022;6.818;2023-07-31T05:01:53;8.68;;;3.28;;
6406;SDS011;3236;51.022;6.818;2023-07-31T05:04:20;10.00;;;3.50;;
6406;SDS011;3236;51.022;6.818;2023-07-31T05:06:48;7.88;;;3.72;;
6406;SDS011;3236;51.022;6.818;2023-07-31T05:09:19;6.63;;;3.58;;
6406;SDS011;3236;51.022;6.818;2023-07-31T05:11:46;8.98;;;3.65;;
6406;SDS011;3236;51.022;6.818;2023-07-31T05:14:13;5.20;;;3.50;;
6406;SDS011;3236;51.022;6.818;2023-07-31T05:16:41;8.93;;;3.17;;
6406;SDS011;3236;51.022;6.818;2023-07-31T05:19:08;5.68;;;3.22;;
6406;SDS011;3236;51.022;6.818;2023-07-31T05:21:35;4.30;;;2.80;;
6406;SDS011;3236;51.022;6.818;2023-07-31T05:24:03;7.13;;;3.58;;
6406;SDS011;3236;51.022;6.818;2023-07-31T05:26:31;6.47;;;3.67;;
6406;SDS011;3236;51.022;6.818;2023-07-31T05:28:59;9.23;;;3.63;;
6406;SDS011;3236;51.022;6.818;2023-07-31T05:31:26;5.00;;;2.83;;
6406;SDS011;3236;51.022;6.818;2023-07-31T05:33:53;6.50;;;2.95;;
6406;SDS011;3236;51.022;6.818;2023-07-31T05:36:20;6.28;;;3.10;;
6406;SDS011;3236;51.022;6.818;2023-07-31T05:38:47;7.03;;;3.10;;
6406;SDS011;3236;51.022;6.818;2023-07-31T05:41:14;6.72;;;2.83;;
6406;SDS011;3236;51.022;6.818;2023-07-31T05:43:43;7.57;;;3.47;;
6406;SDS011;3236;51.022;6.818;2023-07-31T05:46:10;6.85;;;3.58;;
6406;SDS011;3236;51.022;6.818;2023-07-31T05:48:38;6.07;;;3.33;;
6406;SDS011;3236;51.022;6.818;2023-07-31T05:51:05;5.35;;;3.20;;
6406;SDS011;3236;51.022;6.818;2023-07-31T05:53:32;4.00;;;2.65;;
6406;SDS011;3236;51.022;6.818;2023-07-31T05:55:59;7.78;;;3.33;;
6406;SDS011;3236;51.022;6.818;2023-07-31T05:58:26;4.60;;;2.45;;
6406;SDS011;3236;51.022;6.818;2023-07-31T06:00:55;7.45;;;2.97;;
6406;SDS011;3236;51.022;6.818;2023-07-31T06:03:22;7.90;;;2.72;;
6406;SDS011;3236;51.022;6.818;2023-07-31T06:05:49;6.30;;;3.40;;
6406;SDS011;3236;51.022;6.818;2023-07-31T06:08:16;9.55;;;3.13;;
6406;SDS011;3236;51.022;6.818;2023-07-31T06:10:43;4.65;;;3.00;;
6406;SDS011;3236;51.022;6.818;2023-07-31T06:13:11;5.53;;;2.80;;
6406;SDS011;3236;51.022;6.818;2023-07-31T06:15:38;5.82;;;2.55;;
6406;SDS011;3236;51.022;6.818;2023-07-31T06:18:06;8.88;;;3.30;;
6406;SDS011;3236;51.022;6.818;2023-07-31T06:20:34;6.80;;;2.78;;
6406;SDS011;3236;51.022;6.818;2023-07-31T06:23:01;8.70;;;3.30;;
6406;SDS011;3236;51.022;6.818;2023-07-31T06:25:28;8.40;;;3.25;;
6406;SDS011;3236;51.022;6.818;2023-07-31T06:27:56;5.93;;;3.47;;
6406;SDS011;3236;51.022;6.818;2023-07-31T06:30:23;6.57;;;3.20;;
6406;SDS011;3236;51.022;6.818;2023-07-31T06:32:50;5.00;;;2.67;;
6406;SDS011;3236;51.022;6.818;2023-07-31T06:35:19;6.25;;;3.10;;
6406;SDS011;3236;51.022;6.818;2023-07-31T06:37:46;7.05;;;2.53;;
6406;SDS011;3236;51.022;6.818;2023-07-31T06:40:13;7.88;;;2.42;;
6406;SDS011;3236;51.022;6.818;2023-07-31T06:42:40;6.22;;;2.53;;
6406;SDS011;3236;51.022;6.818;2023-07-31T06:45:08;6.95;;;3.05;;
6406;SDS011;3236;51.022;6.818;2023-07-31T06:47:35;8.52;;;2.95;;
6406;SDS011;3236;51.022;6.818;2023-07-31T06:50:02;8.52;;;3.03;;
6406;SDS011;3236;51.022;6.818;2023-07-31T06:52:31;4.57;;;2.67;;
6406;SDS011;3236;51.022;6.818;2023-07-31T06:55:01;8.00;;;2.63;;
6406;SDS011;3236;51.022;6.818;2023-07-31T06:57:30;9.40;;;2.95;;
6406;SDS011;3236;51.022;6.818;2023-07-31T06:59:58;5.28;;;2.63;;
6406;SDS011;3236;51.022;6.818;2023-07-31T07:02:25;4.60;;;2.78;;
6406;SDS011;3236;51.022;6.818;2023-07-31T07:04:52;3.90;;;2.08;;
6406;SDS011;3236;51.022;6.818;2023-07-31T07:07:19;6.88;;;3.10;;
6406;SDS011;3236;51.022;6.818;2023-07-31T07:09:48;6.35;;;2.65;;
6406;SDS011;3236;51.022;6.818;2023-07-31T07:12:15;6.15;;;2.47;;
6406;SDS011;3236;51.022;6.818;2023-07-31T07:14:42;12.43;;;2.63;;
6406;SDS011;3236;51.022;6.818;2023-07-31T07:17:11;4.60;;;2.35;;
6406;SDS011;3236;51.022;6.818;2023-07-31T07:19:40;7.70;;;2.38;;
6406;SDS011;3236;51.022;6.818;2023-07-31T07:22:07;4.05;;;2.55;;
6406;SDS011;3236;51.022;6.818;2023-07-31T07:24:34;8.63;;;3.00;;
6406;SDS011;3236;51.022;6.818;2023-07-31T07:27:03;5.63;;;2.30;;
6406;SDS011;3236;51.022;6.818;2023-07-31T07:29:30;5.80;;;2.63;;
6406;SDS011;3236;51.022;6.818;2023-07-31T07:31:58;7.78;;;2.88;;
6406;SDS011;3236;51.022;6.818;2023-07-31T07:34:25;7.07;;;3.10;;
6406;SDS011;3236;51.022;6.818;2023-07-31T07:36:53;5.85;;;3.13;;
6406;SDS011;3236;51.022;6.818;2023-07-31T07:39:23;7.88;;;2.78;;
6406;SDS011;3236;51.022;6.818;2023-07-31T07:41:50;4.68;;;2.15;;
6406;SDS011;3236;51.022;6.818;2023-07-31T07:44:20;12.52;;;2.80;;
6406;SDS011;3236;51.022;6.818;2023-07-31T07:46:47;14.70;;;3.38;;
6406;SDS011;3236;51.022;6.818;2023-07-31T07:49:14;8.23;;;3.97;;
6406;SDS011;3236;51.022;6.818;2023-07-31T07:51:41;7.38;;;2.90;;
6406;SDS011;3236;51.022;6.818;2023-07-31T07:54:08;7.90;;;2.75;;
6406;SDS011;3236;51.022;6.818;2023-07-31T07:56:35;9.93;;;2.97;;
6406;SDS011;3236;51.022;6.818;2023-07-31T07:59:03;7.68;;;3.03;;
6406;SDS011;3236;51.022;6.818;2023-07-31T08:01:32;10.43;;;3.40;;
6406;SDS011;3236;51.022;6.818;2023-07-31T08:04:00;5.63;;;3.03;;
6406;SDS011;3236;51.022;6.818;2023-07-31T08:06:27;8.77;;;2.72;;
6406;SDS011;3236;51.022;6.818;2023-07-31T08:08:55;11.27;;;4.38;;
6406;SDS011;3236;51.022;6.818;2023-07-31T08:11:22;10.13;;;3.30;;
6406;SDS011;3236;51.022;6.818;2023-07-31T08:13:49;5.13;;;2.60;;
6406;SDS011;3236;51.022;6.818;2023-07-31T08:16:24;5.95;;;2.70;;
6406;SDS011;3236;51.022;6.818;2023-07-31T08:18:53;9.70;;;2.60;;
6406;SDS011;3236;51.022;6.818;2023-07-31T08:21:20;5.50;;;2.53;;
6406;SDS011;3236;51.022;6.818;2023-07-31T08:23:48;5.60;;;2.58;;
6406;SDS011;3236;51.022;6.818;2023-07-31T08:26:15;6.60;;;2.78;;
6406;SDS011;3236;51.022;6.818;2023-07-31T08:28:43;4.05;;;2.60;;
6406;SDS011;3236;51.022;6.818;2023-07-31T08:31:10;6.65;;;3.13;;
6406;SDS011;3236;51.022;6.818;2023-07-31T08:33:37;8.20;;;2.88;;
6406;SDS011;3236;51.022;6.818;2023-07-31T08:36:06;18.45;;;3.40;;
6406;SDS011;3236;51.022;6.818;2023-07-31T08:38:33;9.13;;;2.40;;
6406;SDS011;3236;51.022;6.818;2023-07-31T08:41:02;6.07;;;2.45;;
6406;SDS011;3236;51.022;6.818;2023-07-31T08:43:29;3.90;;;2.60;;
6406;SDS011;3236;51.022;6.818;2023-07-31T08:45:57;5.47;;;2.20;;
6406;SDS011;3236;51.022;6.818;2023-07-31T08:48:25;6.45;;;2.85;;
6406;SDS011;3236;51.022;6.818;2023-07-31T08:50:52;7.20;;;2.88;;
6406;SDS011;3236;51.022;6.818;2023-07-31T08:53:21;4.00;;;2.35;;
6406;SDS011;3236;51.022;6.818;2023-07-31T08:55:48;5.07;;;2.13;;
6406;SDS011;3236;51.022;6.818;2023-07-31T08:58:16;2.60;;;1.90;;
6406;SDS011;3236;51.022;6.818;2023-07-31T09:00:45;2.28;;;1.60;;
6406;SDS011;3236;51.022;6.818;2023-07-31T09:03:17;5.30;;;2.03;;
6406;SDS011;3236;51.022;6.818;2023-07-31T09:05:45;3.83;;;2.00;;
6406;SDS011;3236;51.022;6.818;2023-07-31T09:08:19;5.90;;;2.40;;
6406;SDS011;3236;51.022;6.818;2023-07-31T09:10:48;8.18;;;2.60;;
6406;SDS011;3236;51.022;6.818;2023-07-31T09:13:16;5.28;;;2.08;;
6406;SDS011;3236;51.022;6.818;2023-07-31T09:15:45;3.80;;;2.08;;
6406;SDS011;3236;51.022;6.818;2023-07-31T09:18:13;3.60;;;2.08;;
6406;SDS011;3236;51.022;6.818;2023-07-31T09:20:43;3.80;;;2.10;;
6406;SDS011;3236;51.022;6.818;2023-07-31T09:23:11;2.90;;;1.90;;
6406;SDS011;3236;51.022;6.818;2023-07-31T09:25:43;5.18;;;2.40;;
6406;SDS011;3236;51.022;6.818;2023-07-31T09:28:15;8.80;;;3.42;;
6406;SDS011;3236;51.022;6.818;2023-07-31T09:30:47;4.97;;;2.22;;
6406;SDS011;3236;51.022;6.818;2023-07-31T09:35:41;6.38;;;2.03;;
6406;SDS011;3236;51.022;6.818;2023-07-31T09:38:09;8.05;;;2.25;;
6406;SDS011;3236;51.022;6.818;2023-07-31T09:40:38;4.68;;;2.20;;
6406;SDS011;3236;51.022;6.818;2023-07-31T09:43:08;4.25;;;2.03;;
6406;SDS011;3236;51.022;6.818;2023-07-31T09:45:37;3.50;;;2.28;;
6406;SDS011;3236;51.022;6.818;2023-07-31T09:48:06;3.80;;;2.15;;
6406;SDS011;3236;51.022;6.818;2023-07-31T09:50:36;11.10;;;2.78;;
6406;SDS011;3236;51.022;6.818;2023-07-31T09:53:04;6.57;;;2.08;;
6406;SDS011;3236;51.022;6.818;2023-07-31T09:55:31;4.85;;;2.55;;
6406;SDS011;3236;51.022;6.818;2023-07-31T09:57:59;2.50;;;1.70;;
6406;SDS011;3236;51.022;6.818;2023-07-31T10:00:31;3.90;;;1.88;;
6406;SDS011;3236;51.022;6.818;2023-07-31T10:02:59;3.45;;;1.77;;
6406;SDS011;3236;51.022;6.818;2023-07-31T10:05:29;6.07;;;2.28;;
6406;SDS011;3236;51.022;6.818;2023-07-31T10:07:58;4.35;;;2.22;;
6406;SDS011;3236;51.022;6.818;2023-07-31T10:10:25;6.05;;;2.10;;
6406;SDS011;3236;51.022;6.818;2023-07-31T10:12:54;4.50;;;2.17;;
6406;SDS011;3236;51.022;6.818;2023-07-31T10:15:21;3.72;;;2.03;;
6406;SDS011;3236;51.022;6.818;2023-07-31T10:17:51;2.67;;;1.80;;
6406;SDS011;3236;51.022;6.818;2023-07-31T10:20:20;4.82;;;2.00;;
6406;SDS011;3236;51.022;6.818;2023-07-31T10:22:48;5.68;;;1.90;;
6406;SDS011;3236;51.022;6.818;2023-07-31T10:25:16;5.28;;;2.30;;
6406;SDS011;3236;51.022;6.818;2023-07-31T10:27:43;8.73;;;2.00;;
6406;SDS011;3236;51.022;6.818;2023-07-31T10:30:11;5.05;;;2.30;;
6406;SDS011;3236;51.022;6.818;2023-07-31T10:32:45;5.45;;;2.35;;
6406;SDS011;3236;51.022;6.818;2023-07-31T10:35:16;4.57;;;2.63;;
6406;SDS011;3236;51.022;6.818;2023-07-31T10:37:44;5.65;;;2.65;;
6406;SDS011;3236;51.022;6.818;2023-07-31T10:40:12;7.93;;;2.58;;
6406;SDS011;3236;51.022;6.818;2023-07-31T10:42:45;11.70;;;2.28;;
6406;SDS011;3236;51.022;6.818;2023-07-31T10:45:14;6.00;;;2.28;;
6406;SDS011;3236;51.022;6.818;2023-07-31T10:47:42;4.10;;;1.40;;
6406;SDS011;3236;51.022;6.818;2023-07-31T10:50:11;3.47;;;2.25;;
6406;SDS011;3236;51.022;6.818;2023-07-31T10:52:49;1.80;;;1.52;;
6406;SDS011;3236;51.022;6.818;2023-07-31T10:55:27;1.67;;;1.23;;
6406;SDS011;3236;51.022;6.818;2023-07-31T10:57:56;3.60;;;1.55;;
6406;SDS011;3236;51.022;6.818;2023-07-31T11:00:31;1.85;;;1.67;;
6406;SDS011;3236;51.022;6.818;2023-07-31T11:02:58;2.00;;;1.10;;
6406;SDS011;3236;51.022;6.818;2023-07-31T11:08:16;2.95;;;1.70;;
6406;SDS011;3236;51.022;6.818;2023-07-31T11:10:44;3.35;;;1.60;;
6406;SDS011;3236;51.022;6.818;2023-07-31T11:13:12;3.35;;;1.23;;
6406;SDS011;3236;51.022;6.818;2023-07-31T11:15:39;2.67;;;1.48;;
6406;SDS011;3236;51.022;6.818;2023-07-31T11:18:07;2.35;;;0.98;;
6406;SDS011;3236;51.022;6.818;2023-07-31T11:20:36;0.80;;;0.65;;
6406;SDS011;3236;51.022;6.818;2023-07-31T11:23:06;0.77;;;0.73;;
6406;SDS011;3236;51.022;6.818;2023-07-31T11:25:34;1.15;;;0.75;;
6406;SDS011;3236;51.022;6.818;2023-07-31T11:28:03;1.15;;;1.05;;
6406;SDS011;3236;51.022;6.818;2023-07-31T11:30:31;1.23;;;0.70;;
6406;SDS011;3236;51.022;6.818;2023-07-31T11:32:59;1.30;;;1.00;;
6406;SDS011;3236;51.022;6.818;2023-07-31T11:35:28;1.45;;;0.70;;
6406;SDS011;3236;51.022;6.818;2023-07-31T11:37:55;1.98;;;0.88;;
6406;SDS011;3236;51.022;6.818;2023-07-31T11:40:24;2.75;;;0.70;;
6406;SDS011;3236;51.022;6.818;2023-07-31T11:42:54;1.65;;;0.60;;
6406;SDS011;3236;51.022;6.818;2023-07-31T11:45:24;1.38;;;0.77;;
6406;SDS011;3236;51.022;6.818;2023-07-31T11:47:53;0.88;;;0.88;;
6406;SDS011;3236;51.022;6.818;2023-07-31T11:50:21;0.85;;;0.68;;
6406;SDS011;3236;51.022;6.818;2023-07-31T11:52:51;3.63;;;0.93;;
6406;SDS011;3236;51.022;6.818;2023-07-31T11:55:23;1.10;;;0.70;;
6406;SDS011;3236;51.022;6.818;2023-07-31T11:57:51;0.70;;;0.60;;
6406;SDS011;3236;51.022;6.818;2023-07-31T12:00:19;4.18;;;1.00;;
6406;SDS011;3236;51.022;6.818;2023-07-31T12:02:47;0.80;;;0.70;;
6406;SDS011;3236;51.022;6.818;2023-07-31T12:05:14;1.10;;;1.00;;
6406;SDS011;3236;51.022;6.818;2023-07-31T12:07:49;1.80;;;1.13;;
6406;SDS011;3236;51.022;6.818;2023-07-31T12:10:24;1.70;;;1.13;;
6406;SDS011;3236;51.022;6.818;2023-07-31T12:12:56;2.08;;;1.13;;
6406;SDS011;3236;51.022;6.818;2023-07-31T12:15:32;1.60;;;1.20;;
6406;SDS011;3236;51.022;6.818;2023-07-31T12:17:59;2.15;;;1.15;;
6406;SDS011;3236;51.022;6.818;2023-07-31T12:20:27;1.80;;;1.20;;
6406;SDS011;3236;51.022;6.818;2023-07-31T12:22:56;2.17;;;1.15;;
6406;SDS011;3236;51.022;6.818;2023-07-31T12:25:29;2.63;;;1.63;;
6406;SDS011;3236;51.022;6.818;2023-07-31T12:27:57;2.42;;;1.38;;
6406;SDS011;3236;51.022;6.818;2023-07-31T12:30:31;1.52;;;1.23;;
6406;SDS011;3236;51.022;6.818;2023-07-31T12:33:02;5.05;;;1.60;;
6406;SDS011;3236;51.022;6.818;2023-07-31T12:35:36;6.30;;;2.10;;
6406;SDS011;3236;51.022;6.818;2023-07-31T12:40:32;7.28;;;1.58;;
6406;SDS011;3236;51.022;6.818;2023-07-31T12:43:01;2.22;;;1.20;;
6406;SDS011;3236;51.022;6.818;2023-07-31T12:45:29;2.72;;;1.75;;
6406;SDS011;3236;51.022;6.818;2023-07-31T12:47:57;3.60;;;1.92;;
6406;SDS011;3236;51.022;6.818;2023-07-31T12:50:24;3.75;;;1.75;;
6406;SDS011;3236;51.022;6.818;2023-07-31T12:52:52;5.93;;;2.08;;
6406;SDS011;3236;51.022;6.818;2023-07-31T12:55:20;3.22;;;1.85;;
6406;SDS011;3236;51.022;6.818;2023-07-31T12:57:49;2.42;;;1.70;;
6406;SDS011;3236;51.022;6.818;2023-07-31T13:00:16;4.40;;;1.88;;
6406;SDS011;3236;51.022;6.818;2023-07-31T13:02:44;4.07;;;1.95;;
6406;SDS011;3236;51.022;6.818;2023-07-31T13:05:11;4.38;;;1.50;;
6406;SDS011;3236;51.022;6.818;2023-07-31T13:07:38;3.03;;;1.90;;
6406;SDS011;3236;51.022;6.818;2023-07-31T13:10:06;2.63;;;1.85;;
6406;SDS011;3236;51.022;6.818;2023-07-31T13:12:34;2.30;;;1.70;;
6406;SDS011;3236;51.022;6.818;2023-07-31T13:15:03;5.00;;;2.28;;
6406;SDS011;3236;51.022;6.818;2023-07-31T13:17:30;2.10;;;1.58;;
6406;SDS011;3236;51.022;6.818;2023-07-31T13:19:57;3.90;;;1.70;;
6406;SDS011;3236;51.022;6.818;2023-07-31T13:22:27;2.15;;;1.75;;
6406;SDS011;3236;51.022;6.818;2023-07-31T13:24:54;3.67;;;1.80;;
6406;SDS011;3236;51.022;6.818;2023-07-31T13:27:22;4.90;;;2.15;;
6406;SDS011;3236;51.022;6.818;2023-07-31T13:29:49;4.55;;;1.67;;
6406;SDS011;3236;51.022;6.818;2023-07-31T13:32:19;2.15;;;1.60;;
6406;SDS011;3236;51.022;6.818;2023-07-31T13:34:47;2.83;;;2.00;;
6406;SDS011;3236;51.022;6.818;2023-07-31T13:37:17;3.67;;;1.70;;
6406;SDS011;3236;51.022;6.818;2023-07-31T13:39:44;3.78;;;1.67;;
6406;SDS011;3236;51.022;6.818;2023-07-31T13:42:12;4.35;;;1.80;;
6406;SDS011;3236;51.022;6.818;2023-07-31T13:44:39;4.38;;;2.22;;
6406;SDS011;3236;51.022;6.818;2023-07-31T13:47:06;2.08;;;1.73;;
6406;SDS011;3236;51.022;6.818;2023-07-31T13:49:36;3.25;;;1.92;;
6406;SDS011;3236;51.022;6.818;2023-07-31T13:52:04;2.58;;;1.80;;
6406;SDS011;3236;51.022;6.818;2023-07-31T13:54:31;3.97;;;1.85;;
6406;SDS011;3236;51.022;6.818;2023-07-31T13:56:58;3.35;;;1.70;;
6406;SDS011;3236;51.022;6.818;2023-07-31T13:59:26;2.80;;;1.58;;
6406;SDS011;3236;51.022;6.818;2023-07-31T14:01:54;2.10;;;1.65;;
6406;SDS011;3236;51.022;6.818;2023-07-31T14:04:21;2.63;;;1.55;;
6406;SDS011;3236;51.022;6.818;2023-07-31T14:06:52;3.50;;;1.92;;
6406;SDS011;3236;51.022;6.818;2023-07-31T14:09:22;3.15;;;1.73;;
6406;SDS011;3236;51.022;6.818;2023-07-31T14:11:50;4.47;;;1.70;;
6406;SDS011;3236;51.022;6.818;2023-07-31T14:14:17;2.20;;;1.33;;
6406;SDS011;3236;51.022;6.818;2023-07-31T14:16:45;3.33;;;1.80;;
6406;SDS011;3236;51.022;6.818;2023-07-31T14:19:12;3.20;;;1.80;;
6406;SDS011;3236;51.022;6.818;2023-07-31T14:21:39;3.10;;;1.60;;
6406;SDS011;3236;51.022;6.818;2023-07-31T14:24:08;2.38;;;1.90;;
6406;SDS011;3236;51.022;6.818;2023-07-31T14:26:35;2.38;;;1.90;;
6406;SDS011;3236;51.022;6.818;2023-07-31T14:29:02;5.25;;;2.20;;
6406;SDS011;3236;51.022;6.818;2023-07-31T14:31:29;3.95;;;2.30;;
6406;SDS011;3236;51.022;6.818;2023-07-31T14:33:56;3.63;;;2.17;;
6406;SDS011;3236;51.022;6.818;2023-07-31T14:36:23;2.67;;;1.77;;
6406;SDS011;3236;51.022;6.818;2023-07-31T14:38:50;4.90;;;2.53;;
6406;SDS011;3236;51.022;6.818;2023-07-31T14:41:19;3.38;;;2.22;;
6406;SDS011;3236;51.022;6.818;2023-07-31T14:43:46;4.25;;;3.22;;
6406;SDS011;3236;51.022;6.818;2023-07-31T14:46:13;4.88;;;2.45;;
6406;SDS011;3236;51.022;6.818;2023-07-31T14:48:40;4.03;;;2.63;;
6406;SDS011;3236;51.022;6.818;2023-07-31T14:51:08;4.20;;;2.78;;
6406;SDS011;3236;51.022;6.818;2023-07-31T14:53:36;4.90;;;2.05;;
6406;SDS011;3236;51.022;6.818;2023-07-31T14:56:03;4.10;;;2.90;;
6406;SDS011;3236;51.022;6.818;2023-07-31T14:58:32;5.75;;;2.70;;
6406;SDS011;3236;51.022;6.818;2023-07-31T15:00:59;2.22;;;1.58;;
6406;SDS011;3236;51.022;6.818;2023-07-31T15:03:26;4.82;;;2.42;;
6406;SDS011;3236;51.022;6.818;2023-07-31T15:05:54;2.72;;;2.10;;
6406;SDS011;3236;51.022;6.818;2023-07-31T15:08:21;6.50;;;2.80;;
6406;SDS011;3236;51.022;6.818;2023-07-31T15:10:48;5.07;;;2.78;;
6406;SDS011;3236;51.022;6.818;2023-07-31T15:13:20;4.00;;;2.20;;
6406;SDS011;3236;51.022;6.818;2023-07-31T15:15:49;6.30;;;3.00;;
6406;SDS011;3236;51.022;6.818;2023-07-31T15:18:16;4.15;;;1.98;;
6406;SDS011;3236;51.022;6.818;2023-07-31T15:20:43;3.00;;;2.38;;
6406;SDS011;3236;51.022;6.818;2023-07-31T15:23:10;5.05;;;2.53;;
6406;SDS011;3236;51.022;6.818;2023-07-31T15:25:37;4.80;;;2.22;;